Time;durP1;ratioP1;P1;durP2;ratioP2;P2;SDS_P1;SDS_P2;PMS_P1;PMS_P2;Temp;Humidity;BMP_temperature;BMP_pressure;BME280_temperature;BME280_humidity;BME280_pressure;Samples;Min_cycle;Max_cycle;Signal;HPM_P1;HPM_P2
2022/10/25 00:00:41;;;;;;;4.85;1.17;;;;;;;10.44;100.00;99836.22;5034563;28;20089;-75
2022/10/25 00:03:07;;;;;;;4.03;1.20;;;;;;;10.35;100.00;99826.97;5038966;28;20021;-74
2022/10/25 00:05:36;;;;;;;3.88;1.25;;;;;;;10.34;100.00;99830.81;5033722;28;20032;-75
2022/10/25 00:08:02;;;;;;;8.77;1.88;;;;;;;10.34;100.00;99831.63;5039291;28;20022;-75
2022/10/25 00:10:28;;;;;;;6.40;1.83;;;;;;;10.27;100.00;99818.22;5033890;28;20033;-74
2022/10/25 00:12:53;;;;;;;8.07;2.83;;;;;;;10.24;100.00;99816.06;5015674;28;20519;-74
2022/10/25 00:15:19;;;;;;;10.27;3.63;;;;;;;10.30;100.00;99825.84;5038082;28;20502;-74
2022/10/25 00:17:44;;;;;;;6.32;2.50;;;;;;;10.25;100.00;99823.16;5040728;28;20152;-75
2022/10/25 00:20:11;;;;;;;7.68;2.05;;;;;;;10.28;100.00;99835.47;5021444;28;20053;-74
2022/10/25 00:22:36;;;;;;;5.57;1.45;;;;;;;10.13;100.00;99819.91;5049125;28;20033;-75
2022/10/25 00:25:03;;;;;;;3.63;0.82;;;;;;;10.17;100.00;99842.84;5047025;28;20407;-74
2022/10/25 00:27:28;;;;;;;3.28;0.80;;;;;;;10.17;100.00;99839.31;5021181;28;20045;-74
2022/10/25 00:29:54;;;;;;;5.07;0.93;;;;;;;10.08;100.00;99833.59;5020384;28;20030;-74
2022/10/25 00:32:20;;;;;;;6.88;1.20;;;;;;;10.12;100.00;99838.22;5044743;28;20017;-74
2022/10/25 00:34:45;;;;;;;2.78;0.77;;;;;;;10.08;100.00;99830.88;5039132;28;20438;-75
2022/10/25 00:37:10;;;;;;;0.82;0.47;;;;;;;10.04;100.00;99832.50;5035018;28;20125;-75
2022/10/25 00:39:36;;;;;;;2.97;0.90;;;;;;;10.07;100.00;99838.22;5033288;28;20106;-74
2022/10/25 00:42:02;;;;;;;0.90;0.45;;;;;;;10.00;100.00;99828.69;5021780;28;20112;-72
2022/10/25 00:44:39;;;;;;;9.13;1.00;;;;;;;10.06;100.00;99835.78;5034936;28;20061;-73
2022/10/25 00:47:20;;;;;;;1.23;0.65;;;;;;;10.07;100.00;99834.69;5036545;28;20021;-74
2022/10/25 00:50:15;;;;;;;4.28;1.40;;;;;;;10.08;100.00;99836.34;5038207;28;20049;-74
2022/10/25 00:52:44;;;;;;;6.03;1.27;;;;;;;10.05;100.00;99834.16;5033965;28;20033;-73
2022/10/25 00:55:13;;;;;;;6.43;1.50;;;;;;;10.02;100.00;99812.84;5035556;28;20025;-74
2022/10/25 00:57:53;;;;;;;6.25;1.67;;;;;;;10.03;100.00;99826.25;5043995;28;20041;-74
2022/10/25 01:00:19;;;;;;;5.10;1.00;;;;;;;10.06;100.00;99824.84;5040751;28;20032;-73
2022/10/25 01:02:45;;;;;;;6.38;1.25;;;;;;;10.08;100.00;99828.13;5036006;28;20033;-73
2022/10/25 01:05:11;;;;;;;2.83;0.85;;;;;;;10.05;100.00;99828.69;5035219;28;20038;-72
2022/10/25 01:07:37;;;;;;;8.35;0.90;;;;;;;10.07;100.00;99827.28;5025151;28;20033;-73
2022/10/25 01:10:03;;;;;;;9.18;1.42;;;;;;;10.06;100.00;99824.84;5023425;28;20010;-73
2022/10/25 01:12:29;;;;;;;6.82;1.20;;;;;;;10.13;100.00;99836.28;5039786;28;20455;-73
2022/10/25 01:14:55;;;;;;;6.63;1.25;;;;;;;10.19;100.00;99831.63;5032265;28;20029;-72
2022/10/25 01:17:58;;;;;;;6.72;0.93;;;;;;;10.21;100.00;99827.53;5022203;28;20090;-73
2022/10/25 01:20:59;;;;;;;8.68;1.02;;;;;;;10.24;100.00;99829.72;5042907;28;20025;-73
2022/10/25 01:24:01;;;;;;;5.53;1.10;;;;;;;10.25;100.00;99828.63;4962997;28;20030;-73
2022/10/25 01:26:47;;;;;;;10.57;1.38;;;;;;;10.21;100.00;99816.63;5038067;28;20117;-73
2022/10/25 01:29:50;;;;;;;11.75;1.73;;;;;;;10.28;100.00;99828.06;5036579;28;20040;-73
2022/10/25 01:32:32;;;;;;;5.50;1.40;;;;;;;10.34;100.00;99825.34;5037483;28;20036;-73
2022/10/25 01:35:06;;;;;;;8.30;1.38;;;;;;;10.37;100.00;99830.25;5031974;28;20022;-73
2022/10/25 01:38:13;;;;;;;9.88;1.40;;;;;;;10.37;100.00;99841.19;5018302;28;20085;-74
2022/10/25 01:41:06;;;;;;;10.40;1.80;;;;;;;10.38;100.00;99838.19;4980846;28;20114;-74
2022/10/25 01:43:50;;;;;;;9.85;1.60;;;;;;;10.38;100.00;99838.19;5008776;28;20048;-73
2022/10/25 01:46:30;;;;;;;5.55;1.10;;;;;;;10.38;100.00;99831.88;5007571;28;20030;-73
2022/10/25 01:49:05;;;;;;;13.18;1.42;;;;;;;10.38;100.00;99842.81;5019778;28;20061;-73
2022/10/25 01:51:33;;;;;;;11.32;1.55;;;;;;;10.36;100.00;99842.28;5021872;28;20126;-74
2022/10/25 01:53:59;;;;;;;4.68;1.35;;;;;;;10.36;100.00;99834.09;5022375;28;20100;-75
2022/10/25 01:56:52;;;;;;;9.50;1.75;;;;;;;10.35;100.00;99833.25;5016150;28;20042;-73
2022/10/25 02:00:03;;;;;;;11.68;1.58;;;;;;;10.36;100.00;99834.09;5003154;28;20022;-73
2022/10/25 02:03:02;;;;;;;13.13;1.70;;;;;;;10.39;100.00;99828.88;5010517;28;20033;-74
2022/10/25 02:05:59;;;;;;;8.60;1.50;;;;;;;10.43;100.00;99838.16;5014536;28;20455;-74
2022/10/25 02:08:46;;;;;;;12.50;1.52;;;;;;;10.45;100.00;99832.41;5013475;28;20023;-72
2022/10/25 02:11:29;;;;;;;9.88;1.60;;;;;;;10.41;100.00;99828.59;5005771;28;20026;-75
2022/10/25 02:14:24;;;;;;;8.88;1.40;;;;;;;10.40;100.00;99835.16;5014766;28;20029;-74
2022/10/25 02:16:56;;;;;;;3.60;1.20;;;;;;;10.40;100.00;99833.25;4998425;28;20022;-74
2022/10/25 02:19:40;;;;;;;14.90;1.80;;;;;;;10.40;100.00;99838.72;5016874;28;20013;-74
2022/10/25 02:22:11;;;;;;;7.68;1.30;;;;;;;10.45;100.00;99833.25;5020443;28;20040;-75
2022/10/25 02:24:43;;;;;;;6.32;1.00;;;;;;;10.46;100.00;99825.84;5022448;28;20050;-74
2022/10/25 02:27:10;;;;;;;8.63;1.75;;;;;;;10.45;100.00;99826.94;5021607;28;20047;-75
2022/10/25 02:29:37;;;;;;;4.43;1.15;;;;;;;10.52;100.00;99827.44;5028430;28;20101;-74
2022/10/25 02:32:03;;;;;;;5.43;1.33;;;;;;;10.51;100.00;99831.28;5028887;28;20033;-75
2022/10/25 02:34:29;;;;;;;3.60;0.95;;;;;;;10.36;100.00;99806.75;5019393;28;20084;-73
2022/10/25 02:36:58;;;;;;;7.93;1.05;;;;;;;10.50;100.00;99834.28;5048202;28;20049;-74
2022/10/25 02:39:26;;;;;;;6.88;1.15;;;;;;;10.44;100.00;99825.28;5045796;28;20126;-75
2022/10/25 02:41:52;;;;;;;9.55;1.45;;;;;;;10.46;100.00;99823.91;5029576;28;20051;-76
2022/10/25 02:44:18;;;;;;;5.55;1.10;;;;;;;10.41;100.00;99826.69;5021639;28;20131;-75
2022/10/25 02:46:43;;;;;;;4.25;0.98;;;;;;;10.29;100.00;99807.00;5065426;28;20044;-74
2022/10/25 02:49:11;;;;;;;3.97;0.93;;;;;;;10.29;100.00;99824.25;5037157;28;20025;-73
2022/10/25 02:51:37;;;;;;;14.70;1.48;;;;;;;10.18;100.00;99816.34;5073682;28;20498;-76
2022/10/25 02:54:03;;;;;;;6.10;1.10;;;;;;;10.27;100.00;99837.34;5059684;28;20075;-74
2022/10/25 02:56:32;;;;;;;3.35;0.80;;;;;;;10.28;100.00;99832.72;5056001;28;20036;-73
2022/10/25 02:59:20;;;;;;;2.72;0.82;;;;;;;10.30;100.00;99831.31;5045182;28;20032;-74
2022/10/25 03:01:54;;;;;;;6.10;1.20;;;;;;;10.45;100.00;99843.34;5039286;28;20025;-75
2022/10/25 03:04:34;;;;;;;6.88;1.20;;;;;;;10.56;100.00;99839.47;5050988;28;20028;-73
2022/10/25 03:07:00;;;;;;;7.38;0.80;;;;;;;10.63;100.00;99829.06;5045809;28;20082;-73
2022/10/25 03:09:26;;;;;;;5.30;0.95;;;;;;;10.80;100.00;99836.06;5032888;28;20148;-76
2022/10/25 03:11:51;;;;;;;11.40;2.03;;;;;;;10.89;100.00;99831.63;5021339;28;20053;-77
2022/10/25 03:14:17;;;;;;;3.33;0.93;;;;;;;11.00;100.00;99835.94;5031822;28;20503;-74
2022/10/25 03:16:42;;;;;;;10.15;1.20;;;;;;;11.11;100.00;99844.09;5046602;28;20035;-74
2022/10/25 03:19:08;;;;;;;9.18;1.30;;;;;;;11.20;100.00;99844.31;5037429;28;20060;-74
2022/10/25 03:21:34;;;;;;;14.35;1.80;;;;;;;11.25;100.00;99839.63;5060270;28;20356;-72
2022/10/25 03:23:59;;;;;;;7.28;1.40;;;;;;;11.32;100.00;99850.25;5032133;28;20045;-76
2022/10/25 03:26:25;;;;;;;14.27;1.83;;;;;;;11.33;100.00;99840.91;5039913;28;20040;-76
2022/10/25 03:28:50;;;;;;;15.00;1.55;;;;;;;11.30;100.00;99853.28;5017032;28;20036;-76
2022/10/25 03:31:17;;;;;;;5.25;0.90;;;;;;;11.20;100.00;99850.63;5028779;28;20027;-75
2022/10/25 03:33:42;;;;;;;3.53;0.70;;;;;;;11.15;100.00;99856.09;5046040;28;20115;-74
2022/10/25 03:36:09;;;;;;;6.80;1.30;;;;;;;11.12;100.00;99854.75;5021783;28;20053;-75
2022/10/25 03:38:34;;;;;;;6.05;1.05;;;;;;;11.08;100.00;99844.66;5037349;28;20055;-74
2022/10/25 03:40:59;;;;;;;8.80;1.30;;;;;;;11.14;100.00;99859.94;5024361;28;20646;-75
2022/10/25 03:43:25;;;;;;;4.80;0.90;;;;;;;11.23;100.00;99858.25;5045044;28;20017;-76
2022/10/25 03:45:50;;;;;;;6.53;0.98;;;;;;;11.21;100.00;99852.22;5051254;28;20108;-74
2022/10/25 03:48:16;;;;;;;15.82;1.67;;;;;;;11.15;100.00;99845.16;5008241;28;20037;-76
2022/10/25 03:50:41;;;;;;;13.68;1.05;;;;;;;11.08;100.00;99855.59;5027698;28;20037;-75
2022/10/25 03:53:08;;;;;;;5.13;1.10;;;;;;;10.99;100.00;99861.69;5049974;28;20032;-75
2022/10/25 03:55:33;;;;;;;11.85;1.13;;;;;;;10.93;100.00;99862.78;5045074;28;20048;-76
2022/10/25 03:57:59;;;;;;;7.57;1.10;;;;;;;10.87;100.00;99857.66;5037402;28;20033;-75
2022/10/25 04:00:25;;;;;;;5.80;0.98;;;;;;;10.85;100.00;99863.41;5065369;28;20060;-75
2022/10/25 04:02:56;;;;;;;3.50;0.90;;;;;;;10.76;100.00;99856.88;5069093;28;20036;-75
2022/10/25 04:05:21;;;;;;;3.70;1.25;;;;;;;10.75;100.00;99852.50;5044853;28;20273;-75
2022/10/25 04:07:47;;;;;;;7.15;0.90;;;;;;;10.71;100.00;99856.91;5016114;28;20029;-76
2022/10/25 04:10:12;;;;;;;5.28;0.77;;;;;;;10.64;100.00;99847.09;5016342;28;20114;-75
2022/10/25 04:12:37;;;;;;;4.65;0.95;;;;;;;10.61;100.00;99850.38;5061982;28;20537;-74
2022/10/25 04:15:03;;;;;;;4.03;0.70;;;;;;;10.56;100.00;99853.13;5043182;28;20051;-75
2022/10/25 04:17:29;;;;;;;4.10;0.82;;;;;;;10.48;100.00;99854.53;5046485;28;20355;-75
2022/10/25 04:19:54;;;;;;;3.95;0.73;;;;;;;10.48;100.00;99854.53;5047543;28;20041;-75
2022/10/25 04:22:19;;;;;;;1.58;0.60;;;;;;;10.39;100.00;99855.38;5036296;28;20044;-77
2022/10/25 04:24:45;;;;;;;2.78;0.90;;;;;;;10.33;100.00;99856.47;5050225;28;20033;-76
2022/10/25 04:27:10;;;;;;;2.20;0.75;;;;;;;10.32;100.00;99858.38;5054818;28;20025;-76
2022/10/25 04:29:36;;;;;;;5.35;1.20;;;;;;;10.28;100.00;99855.41;5015619;28;20039;-77
2022/10/25 04:32:01;;;;;;;5.40;0.98;;;;;;;10.24;100.00;99861.69;5029604;28;20024;-77
2022/10/25 04:34:26;;;;;;;1.95;0.57;;;;;;;10.19;100.00;99868.00;5048877;28;20029;-74
2022/10/25 04:36:52;;;;;;;4.10;0.70;;;;;;;10.11;100.00;99863.09;5028934;28;20044;-74
2022/10/25 04:39:17;;;;;;;3.55;0.85;;;;;;;10.09;100.00;99873.47;5029321;28;20041;-74
2022/10/25 04:41:45;;;;;;;5.40;0.90;;;;;;;10.06;100.00;99874.00;5025480;28;20037;-76
2022/10/25 04:44:11;;;;;;;1.75;0.45;;;;;;;10.07;100.00;99883.84;5034745;28;20053;-75
2022/10/25 04:46:38;;;;;;;2.88;0.50;;;;;;;10.04;100.00;99884.41;5046678;28;20040;-75
2022/10/25 04:49:04;;;;;;;2.13;0.50;;;;;;;9.93;100.00;99870.78;5045199;28;20017;-77
2022/10/25 04:51:29;;;;;;;3.83;0.75;;;;;;;9.89;100.00;99877.88;5055350;28;20096;-76
2022/10/25 04:53:55;;;;;;;1.02;0.50;;;;;;;9.85;100.00;99876.78;5033857;28;20033;-76
2022/10/25 04:56:21;;;;;;;0.38;0.25;;;;;;;9.81;100.00;99883.06;5046160;28;20037;-75
2022/10/25 04:58:47;;;;;;;0.82;0.20;;;;;;;9.78;100.00;99878.97;5040794;28;20045;-74
2022/10/25 05:01:15;;;;;;;0.55;0.20;;;;;;;9.75;100.00;99879.50;5041878;28;20037;-75
2022/10/25 05:03:42;;;;;;;0.98;0.40;;;;;;;9.75;100.00;99884.97;5043769;28;20021;-74
2022/10/25 05:06:16;;;;;;;1.23;0.40;;;;;;;9.76;100.00;99881.97;5029504;28;20036;-74
2022/10/25 05:08:43;;;;;;;2.25;0.50;;;;;;;9.71;100.00;99889.34;5029765;28;20037;-74
2022/10/25 05:11:11;;;;;;;0.90;0.40;;;;;;;9.61;100.00;99891.00;5044714;28;20029;-74
2022/10/25 05:13:38;;;;;;;0.55;0.20;;;;;;;9.55;100.00;99892.09;5043260;28;20036;-75
2022/10/25 05:16:04;;;;;;;0.13;0.13;;;;;;;9.49;100.00;99893.19;5044386;28;20025;-74
2022/10/25 05:18:31;;;;;;;0.15;0.15;;;;;;;9.44;100.00;99893.16;5042335;28;20021;-75
2022/10/25 05:20:59;;;;;;;0.10;0.10;;;;;;;9.38;100.00;99896.97;5044768;28;20021;-74
2022/10/25 05:23:26;;;;;;;0.60;0.30;;;;;;;9.37;100.00;99892.59;5043717;28;20025;-75
2022/10/25 05:26:11;;;;;;;0.17;0.17;;;;;;;9.35;100.00;99892.88;5026737;28;20064;-74
2022/10/25 05:28:39;;;;;;;0.10;0.10;;;;;;;9.34;100.00;99901.34;5037502;28;20025;-74
2022/10/25 05:31:05;;;;;;;0.10;0.10;;;;;;;9.33;100.00;99905.97;5043732;28;20086;-72
2022/10/25 05:33:32;;;;;;;0.13;0.13;;;;;;;9.32;100.00;99898.06;5045910;28;20093;-75
2022/10/25 05:36:02;;;;;;;0.10;0.10;;;;;;;9.31;100.00;99896.41;5027444;28;20057;-75
2022/10/25 05:38:28;;;;;;;0.10;0.10;;;;;;;9.28;100.00;99896.97;5022405;28;20041;-75
2022/10/25 05:40:55;;;;;;;0.13;0.13;;;;;;;9.31;100.00;99899.16;5026563;28;20026;-74
2022/10/25 05:43:21;;;;;;;0.17;0.17;;;;;;;9.28;100.00;99891.50;5027783;28;20022;-75
2022/10/25 05:45:47;;;;;;;0.30;0.30;;;;;;;9.26;100.00;99889.88;5015638;28;20041;-74
2022/10/25 05:48:12;;;;;;;0.75;0.52;;;;;;;9.26;100.00;99887.13;5021651;28;20058;-75
2022/10/25 05:50:38;;;;;;;0.32;0.30;;;;;;;9.19;100.00;99889.31;5035173;28;20026;-75
2022/10/25 05:53:03;;;;;;;0.20;0.20;;;;;;;9.19;100.00;99900.22;5021502;28;20038;-75
2022/10/25 05:55:29;;;;;;;0.17;0.17;;;;;;;9.21;100.00;99898.06;5005174;28;20412;-77
2022/10/25 05:57:54;;;;;;;0.22;0.20;;;;;;;9.24;100.00;99902.97;5025963;28;20411;-76
2022/10/25 06:00:20;;;;;;;0.40;0.25;;;;;;;9.24;100.00;99894.78;5025678;28;20048;-77
2022/10/25 06:02:45;;;;;;;1.13;0.40;;;;;;;9.29;100.00;99888.50;5010834;28;20081;-76
2022/10/25 06:05:10;;;;;;;0.30;0.30;;;;;;;9.25;100.00;99893.66;5005813;28;20022;-77
2022/10/25 06:07:36;;;;;;;0.40;0.30;;;;;;;9.22;100.00;99885.22;5000590;28;20042;-75
2022/10/25 06:10:01;;;;;;;0.28;0.20;;;;;;;9.21;100.00;99883.56;5009915;28;20030;-78
2022/10/25 06:12:27;;;;;;;1.92;0.30;;;;;;;9.26;100.00;99894.50;5025538;28;20038;-76
2022/10/25 06:14:52;;;;;;;0.52;0.30;;;;;;;9.37;100.00;99895.34;5018522;28;20066;-73
2022/10/25 06:17:18;;;;;;;0.20;0.20;;;;;;;9.52;100.00;99895.34;4993435;28;20054;-74
2022/10/25 06:19:43;;;;;;;1.30;0.57;;;;;;;9.68;100.00;99892.63;4996300;28;20080;-73
2022/10/25 06:22:09;;;;;;;1.33;0.68;;;;;;;9.76;100.00;99889.34;5013826;28;20120;-75
2022/10/25 06:24:34;;;;;;;2.80;0.77;;;;;;;9.83;100.00;99898.09;5022828;28;20030;-75
2022/10/25 06:26:59;;;;;;;1.52;0.75;;;;;;;9.89;100.00;99897.00;5039524;28;20036;-75
2022/10/25 06:29:25;;;;;;;4.22;1.08;;;;;;;9.94;100.00;99898.88;5004628;28;20053;-75
2022/10/25 06:31:50;;;;;;;2.45;1.00;;;;;;;9.95;100.00;99895.88;4998210;28;20099;-74
2022/10/25 06:34:16;;;;;;;1.30;0.95;;;;;;;9.94;100.00;99896.16;5016664;28;20034;-75
2022/10/25 06:36:41;;;;;;;1.88;0.80;;;;;;;9.91;100.00;99894.78;5021603;28;20057;-75
2022/10/25 06:39:07;;;;;;;3.15;0.80;;;;;;;9.89;100.00;99891.53;5025705;28;20874;-73
2022/10/25 06:41:35;;;;;;;1.02;0.80;;;;;;;9.92;100.00;99896.44;5004258;28;20096;-75
2022/10/25 06:44:00;;;;;;;1.20;0.60;;;;;;;9.94;100.00;99899.72;5053376;28;20051;-75
2022/10/25 06:46:28;;;;;;;1.38;0.82;;;;;;;9.97;100.00;99903.81;5039913;28;20097;-75
2022/10/25 06:48:55;;;;;;;4.50;0.80;;;;;;;9.95;100.00;99890.41;5036832;28;20030;-75
2022/10/25 06:51:22;;;;;;;3.25;1.50;;;;;;;9.98;100.00;99899.19;5042074;28;20029;-74
2022/10/25 06:54:06;;;;;;;2.00;0.80;;;;;;;10.00;100.00;99905.97;5036531;28;20084;-73
2022/10/25 06:56:32;;;;;;;6.82;1.10;;;;;;;10.06;100.00;99906.78;5033268;28;20025;-74
2022/10/25 06:58:58;;;;;;;1.30;0.90;;;;;;;10.11;100.00;99909.53;5034887;28;20041;-72
2022/10/25 07:01:24;;;;;;;1.88;0.70;;;;;;;10.07;100.00;99902.97;5036945;28;20089;-73
2022/10/25 07:03:52;;;;;;;2.90;0.75;;;;;;;10.17;100.00;99916.63;5033468;28;20022;-73
2022/10/25 07:06:25;;;;;;;1.90;0.70;;;;;;;10.28;100.00;99920.19;5035444;28;20037;-74
2022/10/25 07:08:57;;;;;;;3.63;0.93;;;;;;;10.33;100.00;99913.88;5029985;28;20387;-73
2022/10/25 07:11:24;;;;;;;6.00;1.20;;;;;;;10.42;100.00;99925.91;5019355;28;20026;-74
2022/10/25 07:13:50;;;;;;;10.68;1.27;;;;;;;10.46;100.00;99922.31;5031021;28;20034;-74
2022/10/25 07:16:18;;;;;;;5.30;1.30;;;;;;;10.56;100.00;99918.75;5029182;28;20146;-74
2022/10/25 07:18:43;;;;;;;5.70;1.27;;;;;;;10.62;100.00;99920.38;5040226;28;20119;-74
2022/10/25 07:21:20;;;;;;;1.75;0.60;;;;;;;10.70;100.00;99926.38;5034738;28;20063;-75
2022/10/25 07:23:46;;;;;;;2.05;0.65;;;;;;;10.75;100.00;99929.09;5029229;28;20045;-74
2022/10/25 07:26:13;;;;;;;3.00;0.75;;;;;;;10.79;100.00;99941.94;5022710;28;20380;-74
2022/10/25 07:28:39;;;;;;;1.67;0.70;;;;;;;10.85;100.00;99939.16;5041356;28;20025;-74
2022/10/25 07:31:05;;;;;;;6.85;1.27;;;;;;;10.92;100.00;99945.97;5043007;28;20091;-73
2022/10/25 07:33:32;;;;;;;4.22;1.05;;;;;;;10.99;100.00;99941.03;5030645;28;20036;-74
2022/10/25 07:35:57;;;;;;;5.07;0.95;;;;;;;11.06;100.00;99950.84;5029805;28;20088;-73
2022/10/25 07:38:23;;;;;;;5.38;1.50;;;;;;;11.15;100.00;99954.63;5022789;28;20468;-74
2022/10/25 07:40:55;;;;;;;1.52;0.60;;;;;;;11.22;100.00;99957.88;5051011;28;20032;-74
2022/10/25 07:43:20;;;;;;;1.75;0.80;;;;;;;11.35;100.00;99959.97;5014285;28;20040;-74
2022/10/25 07:45:45;;;;;;;2.92;0.88;;;;;;;11.46;100.00;99943.50;5012105;28;20020;-74
2022/10/25 07:48:11;;;;;;;4.13;1.05;;;;;;;11.53;100.00;99960.44;5018765;28;20108;-73
2022/10/25 07:50:36;;;;;;;4.57;0.93;;;;;;;11.52;100.00;99954.13;5018913;28;20104;-74
2022/10/25 07:53:03;;;;;;;6.28;1.10;;;;;;;11.65;100.00;99962.81;5017435;28;20113;-75
2022/10/25 07:55:28;;;;;;;10.38;1.83;;;;;;;11.72;100.00;99962.50;5016764;28;20032;-74
2022/10/25 07:58:03;;;;;;;4.60;0.90;;;;;;;11.86;100.00;99968.97;5032128;28;20080;-74
2022/10/25 08:00:29;;;;;;;1.80;0.60;;;;;;;12.20;100.00;99966.22;5054920;28;20033;-75
2022/10/25 08:02:54;;;;;;;3.53;1.17;;;;;;;12.44;100.00;99967.38;5034217;28;20368;-74
2022/10/25 08:05:20;;;;;;;3.47;1.13;;;;;;;12.64;100.00;99972.66;5042844;28;20040;-73
2022/10/25 08:07:45;;;;;;;4.65;1.05;;;;;;;12.84;100.00;99976.31;5035277;28;20100;-75
2022/10/25 08:10:10;;;;;;;7.57;1.83;;;;;;;12.78;100.00;99966.50;5031311;28;20025;-75
2022/10/25 08:12:36;;;;;;;3.80;1.20;;;;;;;13.02;100.00;99975.50;5032252;28;20029;-74
2022/10/25 08:15:02;;;;;;;9.07;1.13;;;;;;;13.48;100.00;99976.03;5026476;28;20025;-75
2022/10/25 08:17:27;;;;;;;11.25;1.33;;;;;;;13.75;100.00;99970.69;5048258;28;20126;-75
2022/10/25 08:19:52;;;;;;;7.57;1.02;;;;;;;13.70;100.00;99983.72;5048373;28;20024;-74
2022/10/25 08:22:18;;;;;;;7.85;1.38;;;;;;;13.48;100.00;99984.28;5026776;28;20033;-74
2022/10/25 08:24:43;;;;;;;9.95;1.52;;;;;;;13.32;100.00;99981.75;5044335;28;20036;-74
2022/10/25 08:27:09;;;;;;;7.00;1.08;;;;;;;13.33;100.00;99977.88;5044026;28;20029;-75
2022/10/25 08:29:34;;;;;;;14.90;1.40;;;;;;;13.42;100.00;99981.63;5023929;28;20044;-74
2022/10/25 08:32:00;;;;;;;6.43;1.23;;;;;;;13.47;100.00;99982.69;5029122;28;20040;-75
2022/10/25 08:34:27;;;;;;;5.80;1.40;;;;;;;13.48;100.00;99979.63;5037811;28;20021;-75
2022/10/25 08:36:53;;;;;;;6.05;1.15;;;;;;;13.59;100.00;99978.38;5036100;28;20082;-75
2022/10/25 08:39:18;;;;;;;3.47;0.90;;;;;;;13.71;100.00;99994.41;5040528;28;20057;-76
2022/10/25 08:41:49;;;;;;;10.85;1.73;;;;;;;13.74;100.00;99998.47;5023129;28;20033;-75
2022/10/25 08:44:21;;;;;;;7.95;1.80;;;;;;;13.78;100.00;99992.09;5053704;28;20535;-74
2022/10/25 08:47:12;;;;;;;1.92;0.80;;;;;;;14.30;100.00;99997.59;5036635;28;20039;-75
2022/10/25 08:50:02;;;;;;;3.53;1.13;;;;;;;14.57;100.00;99995.19;5053145;28;20040;-76
2022/10/25 08:52:34;;;;;;;10.98;1.30;;;;;;;14.79;100.00;99994.53;5042126;28;20082;-75
2022/10/25 08:55:03;;;;;;;7.43;1.60;;;;;;;14.73;100.00;99991.06;5042208;28;20053;-75
2022/10/25 08:57:32;;;;;;;9.18;1.00;;;;;;;14.54;100.00;99998.56;5057848;28;20064;-74
2022/10/25 09:00:09;;;;;;;4.93;1.17;;;;;;;14.53;100.00;99999.66;5041239;28;20025;-75
2022/10/25 09:02:40;;;;;;;6.10;1.02;;;;;;;14.55;100.00;100008.44;5038477;28;20048;-75
2022/10/25 09:05:20;;;;;;;6.45;1.63;;;;;;;14.60;100.00;100005.59;5054823;28;20052;-75
2022/10/25 09:08:16;;;;;;;2.80;0.80;;;;;;;14.67;100.00;99997.78;5049444;28;20029;-76
2022/10/25 09:11:17;;;;;;;4.50;1.00;;;;;;;15.39;100.00;100004.63;5045957;28;20028;-74
2022/10/25 09:13:53;;;;;;;5.35;1.10;;;;;;;16.50;100.00;100001.47;5038984;28;20756;-75
2022/10/25 09:16:32;;;;;;;4.85;1.10;;;;;;;17.52;100.00;100008.03;5052695;28;20735;-74
2022/10/25 09:18:57;;;;;;;4.30;1.13;;;;;;;18.28;100.00;100003.97;5060204;28;20642;-75
2022/10/25 09:21:32;;;;;;;9.23;2.05;;;;;;;18.86;100.00;100008.38;5062428;28;20036;-74
2022/10/25 09:24:04;;;;;;;8.30;2.17;;;;;;;18.94;100.00;100010.31;5040445;28;20052;-74
2022/10/25 09:26:48;;;;;;;10.00;2.03;;;;;;;19.01;100.00;100005.06;5050307;28;20055;-75
2022/10/25 09:29:24;;;;;;;15.95;2.03;;;;;;;20.53;100.00;100006.88;5056459;28;20101;-74
2022/10/25 09:31:58;;;;;;;7.68;1.77;;;;;;;21.34;100.00;100011.94;5046009;28;20059;-75
2022/10/25 09:34:28;;;;;;;5.10;1.35;;;;;;;22.18;99.94;100015.22;5053607;28;20078;-76
2022/10/25 09:37:02;;;;;;;5.22;1.50;;;;;;;23.93;93.10;100022.78;5062325;28;20048;-75
2022/10/25 09:39:41;;;;;;;2.97;1.13;;;;;;;26.51;82.61;100036.50;5047532;28;20028;-74
2022/10/25 09:42:16;;;;;;;5.95;0.90;;;;;;;25.27;80.02;100038.84;5034603;28;20029;-75
2022/10/25 09:44:53;;;;;;;10.40;1.38;;;;;;;23.78;80.82;100043.97;5044850;28;20405;-75
2022/10/25 09:47:36;;;;;;;15.18;2.03;;;;;;;22.94;80.99;100040.34;5060890;28;20024;-75
2022/10/25 09:50:05;;;;;;;11.50;1.23;;;;;;;22.67;84.33;100038.09;5059363;28;20032;-74
2022/10/25 09:53:00;;;;;;;7.97;1.00;;;;;;;23.25;83.89;100033.19;5039867;28;20042;-76
2022/10/25 09:55:49;;;;;;;7.22;1.40;;;;;;;23.00;83.92;100033.34;5013377;28;20045;-74
2022/10/25 09:58:20;;;;;;;5.30;1.10;;;;;;;21.71;82.38;100023.03;5049551;28;20037;-76
2022/10/25 10:00:46;;;;;;;9.75;1.98;;;;;;;20.13;80.71;100009.41;5051292;28;20043;-74
2022/10/25 10:03:12;;;;;;;5.28;1.08;;;;;;;18.84;83.78;100005.94;5061707;28;21745;-74
2022/10/25 10:05:43;;;;;;;5.43;1.17;;;;;;;17.94;86.57;100007.59;5045945;28;20036;-75
2022/10/25 10:08:09;;;;;;;2.53;0.70;;;;;;;17.43;91.13;100005.25;5035061;28;20021;-74
2022/10/25 10:10:35;;;;;;;2.97;0.80;;;;;;;17.48;95.83;100009.81;5044127;28;20032;-75
2022/10/25 10:13:19;;;;;;;5.13;0.95;;;;;;;17.45;97.43;100002.97;5043050;28;20025;-75
2022/10/25 10:15:53;;;;;;;11.07;1.35;;;;;;;17.35;94.86;100002.47;5063756;28;20051;-74
2022/10/25 10:18:33;;;;;;;7.75;1.30;;;;;;;17.36;95.39;99998.56;5061198;28;20158;-75
2022/10/25 10:21:10;;;;;;;4.20;0.90;;;;;;;17.70;96.79;100002.53;5044068;28;20041;-74
2022/10/25 10:23:41;;;;;;;3.95;0.90;;;;;;;18.90;95.66;100001.88;5059456;28;20025;-76
2022/10/25 10:26:30;;;;;;;7.55;0.90;;;;;;;20.57;85.42;99995.88;5041516;28;20029;-74
2022/10/25 10:29:08;;;;;;;6.60;1.02;;;;;;;22.82;78.15;100010.59;5039918;28;20029;-74
2022/10/25 10:31:40;;;;;;;6.70;0.70;;;;;;;24.98;65.50;100015.19;5041193;28;20036;-76
2022/10/25 10:34:21;;;;;;;6.45;1.13;;;;;;;25.47;68.38;100010.78;5030227;28;20112;-75
2022/10/25 10:37:19;;;;;;;6.95;1.13;;;;;;;28.16;63.70;100020.09;5061834;28;20569;-75
2022/10/25 10:39:51;;;;;;;8.15;1.17;;;;;;;28.89;56.29;100004.22;5052206;28;20451;-75
2022/10/25 10:42:18;;;;;;;6.63;1.00;;;;;;;28.51;57.94;99995.31;5060916;28;20021;-75
2022/10/25 10:45:07;;;;;;;5.57;0.80;;;;;;;30.40;56.22;100003.81;5061918;28;20028;-74
2022/10/25 10:47:58;;;;;;;8.88;1.08;;;;;;;32.30;49.01;99997.56;5049404;28;20264;-76
2022/10/25 10:50:29;;;;;;;6.63;0.85;;;;;;;33.75;48.70;100004.47;5058730;28;20054;-76
2022/10/25 10:52:54;;;;;;;5.18;0.60;;;;;;;35.55;45.07;100005.91;5037990;28;20029;-74
2022/10/25 10:55:45;;;;;;;15.63;1.10;;;;;;;35.20;44.29;100004.81;5039840;28;20036;-73
2022/10/25 10:58:16;;;;;;;4.43;0.80;;;;;;;32.62;47.46;100006.78;5037380;28;20025;-75
2022/10/25 11:01:11;;;;;;;1.83;0.60;;;;;;;31.79;50.57;99991.75;5057222;28;20025;-74
2022/10/25 11:03:40;;;;;;;4.00;0.93;;;;;;;32.03;50.02;100008.81;5052869;28;20683;-75
2022/10/25 11:06:14;;;;;;;6.97;0.90;;;;;;;33.06;49.52;100005.69;5040286;28;20036;-76
2022/10/25 11:08:45;;;;;;;6.45;1.48;;;;;;;35.29;43.59;100011.50;5040531;28;20482;-75
2022/10/25 11:11:20;;;;;;;8.23;0.80;;;;;;;33.54;45.05;100000.81;5043336;28;20028;-75
2022/10/25 11:13:57;;;;;;;3.15;0.98;;;;;;;31.81;44.36;99997.78;5043392;28;20055;-75
2022/10/25 11:16:45;;;;;;;6.80;1.30;;;;;;;30.72;49.79;100011.28;5043336;28;20056;-76
2022/10/25 11:19:52;;;;;;;7.63;1.10;;;;;;;27.10;55.94;99983.41;5052385;28;20027;-76
2022/10/25 11:22:37;;;;;;;4.30;1.15;;;;;;;23.90;54.27;99985.22;5060635;28;20033;-76
2022/10/25 11:25:05;;;;;;;4.10;0.98;;;;;;;21.47;58.22;99992.47;5053773;28;20552;-75
2022/10/25 11:27:50;;;;;;;6.85;1.05;;;;;;;19.95;62.16;99981.81;5043785;28;20059;-75
2022/10/25 11:30:34;;;;;;;4.60;1.10;;;;;;;19.14;67.15;99969.97;5060737;28;20025;-75
2022/10/25 11:33:32;;;;;;;5.15;0.98;;;;;;;19.27;68.93;99979.19;5041641;28;20026;-76
2022/10/25 11:36:19;;;;;;;3.92;0.98;;;;;;;24.97;65.61;99979.19;5053680;28;20372;-74
2022/10/25 11:39:10;;;;;;;6.07;1.48;;;;;;;29.22;57.49;99972.06;5041587;28;20025;-74
2022/10/25 11:41:52;;;;;;;3.22;0.80;;;;;;;31.79;54.44;99974.78;5042041;28;20092;-76
2022/10/25 11:44:17;;;;;;;1.75;1.10;;;;;;;32.76;43.50;99975.47;5045189;28;20028;-75
2022/10/25 11:46:43;;;;;;;4.68;0.77;;;;;;;33.72;44.31;99977.75;5057115;28;20063;-75